createdAt,value
2023-04-29T00:00:48.513Z,9.00
2023-04-29T00:03:15.368Z,8.90
2023-04-29T00:05:42.238Z,11.10
2023-04-29T00:08:08.998Z,8.80
2023-04-29T00:10:36.446Z,8.80
2023-04-29T00:13:03.269Z,8.10
2023-04-29T00:15:31.994Z,8.70
2023-04-29T00:17:58.742Z,8.80
2023-04-29T00:20:25.426Z,8.80
2023-04-29T00:22:52.112Z,8.80
2023-04-29T00:25:18.769Z,8.80
2023-04-29T00:27:45.498Z,8.70
2023-04-29T00:30:12.180Z,8.80
2023-04-29T00:32:41.743Z,8.80
2023-04-29T00:35:08.780Z,8.80
2023-04-29T00:37:35.480Z,8.80
2023-04-29T00:40:02.517Z,8.80
2023-04-29T00:42:31.197Z,8.80
2023-04-29T00:44:58.634Z,8.70
2023-04-29T00:47:25.369Z,8.70
2023-04-29T00:49:52.192Z,8.80
2023-04-29T00:52:23.295Z,8.70
2023-04-29T00:54:50.571Z,8.70
2023-04-29T00:57:17.438Z,8.60
2023-04-29T00:59:45.736Z,8.60
2023-04-29T01:02:13.775Z,8.70
2023-04-29T01:04:40.452Z,8.60
2023-04-29T01:07:17.419Z,8.60
2023-04-29T01:10:09.529Z,8.60
2023-04-29T01:12:36.296Z,8.60
2023-04-29T01:15:06.576Z,8.50
2023-04-29T01:17:44.880Z,8.50
2023-04-29T01:20:12.113Z,8.50
2023-04-29T01:22:39.174Z,8.40
2023-04-29T01:25:06.889Z,8.40
2023-04-29T01:27:42.521Z,8.50
2023-04-29T01:30:21.597Z,8.50
2023-04-29T01:33:15.000Z,8.50
2023-04-29T01:35:47.041Z,8.50
2023-04-29T01:38:38.278Z,8.60
2023-04-29T01:41:31.111Z,8.60
2023-04-29T01:44:00.734Z,8.60
2023-04-29T01:46:28.441Z,8.70
2023-04-29T01:48:55.544Z,8.80
2023-04-29T01:51:22.314Z,8.80
2023-04-29T01:53:49.199Z,8.80
2023-04-29T01:56:16.213Z,8.90
2023-04-29T01:58:42.850Z,8.90
2023-04-29T02:01:10.376Z,9.00
2023-04-29T02:03:37.497Z,9.00
2023-04-29T02:06:06.940Z,9.10
2023-04-29T02:08:33.678Z,9.10
2023-04-29T02:11:00.490Z,9.10
2023-04-29T02:13:27.215Z,9.20
2023-04-29T02:15:56.833Z,9.10
2023-04-29T02:18:23.603Z,9.10
2023-04-29T02:20:51.660Z,9.10
2023-04-29T02:23:18.456Z,9.00
2023-04-29T02:25:45.120Z,8.90
2023-04-29T02:28:12.119Z,8.90
2023-04-29T02:30:38.869Z,9.00
2023-04-29T02:33:08.297Z,8.90
2023-04-29T02:35:35.317Z,9.00
2023-04-29T02:38:02.151Z,9.00
2023-04-29T02:40:28.892Z,9.00
2023-04-29T02:42:55.650Z,9.10
2023-04-29T02:45:22.516Z,9.10
2023-04-29T02:47:49.253Z,9.10
2023-04-29T02:50:16.097Z,11.20
2023-04-29T02:52:43.083Z,9.10
2023-04-29T02:55:09.863Z,9.20
2023-04-29T02:57:36.514Z,9.20
2023-04-29T03:00:03.917Z,9.20
2023-04-29T03:02:30.690Z,9.20
2023-04-29T03:04:57.494Z,9.30
2023-04-29T03:07:24.460Z,9.30
2023-04-29T03:09:51.402Z,9.30
2023-04-29T03:12:18.273Z,9.30
2023-04-29T03:14:44.919Z,9.30
2023-04-29T03:17:12.067Z,9.20
2023-04-29T03:19:38.736Z,9.10
2023-04-29T03:22:06.715Z,9.00
2023-04-29T03:24:33.519Z,9.00
2023-04-29T03:27:00.173Z,9.00
2023-04-29T03:29:27.586Z,8.90
2023-04-29T03:31:54.606Z,8.90
2023-04-29T03:34:21.276Z,8.90
2023-04-29T03:36:48.128Z,8.90
2023-04-29T03:39:14.817Z,9.00
2023-04-29T03:41:41.538Z,9.00
2023-04-29T03:44:08.369Z,9.00
2023-04-29T03:46:35.311Z,9.00
2023-04-29T03:49:02.838Z,9.00
2023-04-29T03:51:29.716Z,9.00
2023-04-29T03:53:57.764Z,9.20
2023-04-29T03:56:25.705Z,9.20
2023-04-29T03:58:53.277Z,9.20
2023-04-29T04:01:20.144Z,9.20
2023-04-29T04:03:47.109Z,13.60
2023-04-29T04:06:14.231Z,9.20
2023-04-29T04:08:41.265Z,9.20
2023-04-29T04:11:09.535Z,9.20
2023-04-29T04:13:37.317Z,9.10
2023-04-29T04:16:04.287Z,9.10
2023-04-29T04:18:31.444Z,9.10
2023-04-29T04:20:58.168Z,9.10
2023-04-29T04:23:24.942Z,9.20
2023-04-29T04:25:53.876Z,9.20
2023-04-29T04:28:20.572Z,11.90
2023-04-29T04:30:48.061Z,9.20
2023-04-29T04:33:15.921Z,9.20
2023-04-29T04:35:43.432Z,9.20
2023-04-29T04:38:11.358Z,9.30
2023-04-29T04:40:42.090Z,9.30
2023-04-29T04:45:37.137Z,9.30
2023-04-29T04:48:04.321Z,9.30
2023-04-29T04:50:31.169Z,9.40
2023-04-29T04:52:59.907Z,7.90
2023-04-29T04:55:26.647Z,9.50
2023-04-29T04:57:53.292Z,9.60
2023-04-29T05:00:20.078Z,9.60
2023-04-29T05:02:47.690Z,9.60
2023-04-29T05:05:14.480Z,9.70
2023-04-29T05:07:41.111Z,9.80
2023-04-29T05:10:08.571Z,9.70
2023-04-29T05:12:35.295Z,9.90
2023-04-29T05:15:02.800Z,10.00
2023-04-29T05:17:29.686Z,10.30
2023-04-29T05:19:56.676Z,10.30
2023-04-29T05:22:23.411Z,10.40
2023-04-29T05:24:51.548Z,10.50
2023-04-29T05:27:18.822Z,10.70
2023-04-29T05:29:45.535Z,10.70
2023-04-29T05:32:13.501Z,10.80
2023-04-29T05:34:40.397Z,10.90
2023-04-29T05:37:07.068Z,10.90
2023-04-29T05:39:36.066Z,11.10
2023-04-29T05:42:03.324Z,11.20
2023-04-29T05:44:30.008Z,11.30
2023-04-29T05:46:56.752Z,11.40
2023-04-29T05:49:23.439Z,11.50
2023-04-29T05:51:50.084Z,11.60
2023-04-29T05:54:16.871Z,14.40
2023-04-29T05:56:43.616Z,12.10
2023-04-29T05:59:10.389Z,12.00
2023-04-29T06:01:37.100Z,12.10
2023-04-29T06:04:03.972Z,12.20
2023-04-29T06:06:30.913Z,12.10
2023-04-29T06:08:57.728Z,12.40
2023-04-29T06:11:24.413Z,12.40
2023-04-29T06:13:51.203Z,12.50
2023-04-29T06:16:18.027Z,12.60
2023-04-29T06:18:44.698Z,12.60
2023-04-29T06:21:11.447Z,12.50
2023-04-29T06:23:38.161Z,12.40
2023-04-29T06:26:04.860Z,14.50
2023-04-29T06:28:32.301Z,12.10
2023-04-29T06:30:59.044Z,12.00
2023-04-29T06:33:26.828Z,11.90
2023-04-29T06:35:53.493Z,11.90
2023-04-29T06:38:20.253Z,12.00
2023-04-29T06:40:46.914Z,12.00
2023-04-29T06:43:13.842Z,12.20
2023-04-29T06:45:42.555Z,12.20
2023-04-29T06:48:09.253Z,12.40
2023-04-29T06:50:36.300Z,12.50
2023-04-29T06:53:02.944Z,12.50
2023-04-29T06:55:29.648Z,12.60
2023-04-29T06:57:56.535Z,12.70
2023-04-29T07:00:23.249Z,12.70
2023-04-29T07:02:50.052Z,12.90
2023-04-29T07:05:16.769Z,13.00
2023-04-29T07:07:43.467Z,13.20
2023-04-29T07:10:10.329Z,13.20
2023-04-29T07:12:37.415Z,13.30
2023-04-29T07:15:04.364Z,13.30
2023-04-29T07:17:31.516Z,13.20
2023-04-29T07:19:58.272Z,13.20
2023-04-29T07:22:25.884Z,13.10
2023-04-29T07:24:55.504Z,13.10
2023-04-29T07:27:22.940Z,13.20
2023-04-29T07:29:50.096Z,13.30
2023-04-29T07:32:17.076Z,13.40
2023-04-29T07:34:43.722Z,13.70
2023-04-29T07:37:10.353Z,13.80
2023-04-29T07:39:37.313Z,13.80
2023-04-29T07:42:04.489Z,14.10
2023-04-29T07:44:31.110Z,14.20
2023-04-29T07:46:57.792Z,14.40
2023-04-29T07:49:25.995Z,14.50
2023-04-29T07:51:53.214Z,14.60
2023-04-29T07:54:19.906Z,14.80
2023-04-29T07:56:46.798Z,15.00
2023-04-29T07:59:13.712Z,15.30
2023-04-29T08:01:42.180Z,15.20
2023-04-29T08:04:09.170Z,15.20
2023-04-29T08:06:36.168Z,15.30
2023-04-29T08:09:03.312Z,15.20
2023-04-29T08:11:30.084Z,15.10
2023-04-29T08:13:59.208Z,14.90
2023-04-29T08:16:27.001Z,14.70
2023-04-29T08:18:54.314Z,14.50
2023-04-29T08:21:21.026Z,14.60
2023-04-29T08:23:47.724Z,14.50
2023-04-29T08:26:14.591Z,14.30
2023-04-29T08:28:41.357Z,14.20
2023-04-29T08:31:08.149Z,14.20
2023-04-29T08:33:35.479Z,14.10
2023-04-29T08:36:03.775Z,14.00
2023-04-29T08:38:31.046Z,14.20
2023-04-29T08:40:58.511Z,14.40
2023-04-29T08:43:26.506Z,14.60
2023-04-29T08:45:53.597Z,14.90
2023-04-29T08:48:20.917Z,15.50
2023-04-29T08:50:47.675Z,15.80
2023-04-29T08:53:14.675Z,16.10
2023-04-29T08:55:42.734Z,16.30
2023-04-29T08:58:10.765Z,15.90
2023-04-29T09:00:37.896Z,15.80
2023-04-29T09:03:32.727Z,15.70
2023-04-29T09:06:01.883Z,15.60
2023-04-29T09:08:29.922Z,15.70
2023-04-29T09:10:57.788Z,15.80
2023-04-29T09:13:27.551Z,15.90
2023-04-29T09:15:54.707Z,15.90
2023-04-29T09:18:44.590Z,15.80
2023-04-29T09:21:32.277Z,15.70
2023-04-29T09:24:01.696Z,15.90
2023-04-29T09:26:42.766Z,16.00
2023-04-29T09:29:13.696Z,16.10
2023-04-29T09:31:41.111Z,16.30
2023-04-29T09:34:08.163Z,16.40
2023-04-29T09:36:36.681Z,16.60
2023-04-29T09:39:05.865Z,16.70
2023-04-29T09:41:32.655Z,16.90
2023-04-29T09:44:05.354Z,17.00
2023-04-29T09:46:33.899Z,17.20
2023-04-29T09:49:01.740Z,17.50
2023-04-29T09:51:28.683Z,17.80
2023-04-29T09:53:55.356Z,17.90
2023-04-29T09:56:22.602Z,18.20
2023-04-29T09:58:49.298Z,17.40
2023-04-29T10:01:20.733Z,17.30
2023-04-29T10:03:49.583Z,17.10
2023-04-29T10:06:19.098Z,17.00
2023-04-29T10:08:48.484Z,16.80
2023-04-29T10:11:17.426Z,16.70
2023-04-29T10:13:44.729Z,17.90
2023-04-29T10:16:34.489Z,16.20
2023-04-29T10:19:07.387Z,16.00
2023-04-29T10:21:34.084Z,16.20
2023-04-29T10:24:02.498Z,16.40
2023-04-29T10:26:30.162Z,16.60
2023-04-29T10:29:00.965Z,17.10
2023-04-29T10:31:28.054Z,17.30
2023-04-29T10:33:58.240Z,17.40
2023-04-29T10:36:28.436Z,17.70
2023-04-29T10:38:58.304Z,18.10
2023-04-29T10:41:37.226Z,18.20
2023-04-29T10:44:04.668Z,18.20
2023-04-29T10:46:31.565Z,18.40
2023-04-29T10:49:03.571Z,18.30
2023-04-29T10:51:31.540Z,18.00
2023-04-29T10:54:01.701Z,17.80
2023-04-29T10:56:38.021Z,17.40
2023-04-29T10:59:05.114Z,16.90
2023-04-29T11:01:52.507Z,16.80
2023-04-29T11:04:21.964Z,16.50
2023-04-29T11:06:53.146Z,16.30
2023-04-29T11:09:28.645Z,16.20
2023-04-29T11:11:58.603Z,16.30
2023-04-29T11:14:29.522Z,16.40
2023-04-29T11:17:01.667Z,16.50
2023-04-29T11:19:33.828Z,16.80
2023-04-29T11:22:21.481Z,17.00
2023-04-29T11:24:52.899Z,17.00
2023-04-29T11:29:51.084Z,16.80
2023-04-29T11:32:22.134Z,16.60
2023-04-29T11:34:48.860Z,16.60
2023-04-29T11:39:48.045Z,16.80
2023-04-29T11:42:19.558Z,16.90
2023-04-29T11:44:46.189Z,17.20
2023-04-29T11:47:13.919Z,16.90
2023-04-29T11:49:40.594Z,17.10
2023-04-29T11:52:08.114Z,17.40
2023-04-29T11:54:34.827Z,17.80
2023-04-29T11:57:04.744Z,18.30
2023-04-29T11:59:33.090Z,18.50
2023-04-29T12:02:00.820Z,18.60
2023-04-29T12:04:28.052Z,18.60
2023-04-29T12:06:58.542Z,18.50
2023-04-29T12:09:25.266Z,18.20
2023-04-29T12:11:53.037Z,17.80
2023-04-29T12:14:20.418Z,17.70
2023-04-29T12:16:47.462Z,17.70
2023-04-29T12:19:14.342Z,17.10
2023-04-29T12:21:49.806Z,17.00
2023-04-29T12:24:17.160Z,17.10
2023-04-29T12:26:45.752Z,17.20
2023-04-29T12:29:14.122Z,17.40
2023-04-29T12:31:41.752Z,17.40
2023-04-29T12:34:10.056Z,14.40
2023-04-29T12:36:37.775Z,17.40
2023-04-29T12:39:09.835Z,17.70
2023-04-29T12:41:41.667Z,17.90
2023-04-29T12:44:10.768Z,18.00
2023-04-29T12:46:39.546Z,17.90
2023-04-29T12:49:07.590Z,17.90
2023-04-29T12:51:35.457Z,18.00
2023-04-29T12:54:04.669Z,18.00
2023-04-29T12:56:31.843Z,18.00
2023-04-29T12:59:07.427Z,17.80
2023-04-29T13:01:34.510Z,17.60
2023-04-29T13:04:01.332Z,17.80
2023-04-29T13:06:28.435Z,17.50
2023-04-29T13:08:55.362Z,17.80
2023-04-29T13:11:22.081Z,18.00
2023-04-29T13:13:48.910Z,18.20
2023-04-29T13:16:16.856Z,18.40
2023-04-29T13:18:53.413Z,18.60
2023-04-29T13:21:32.005Z,18.40
2023-04-29T13:23:58.746Z,18.40
2023-04-29T13:26:26.290Z,18.30
2023-04-29T13:28:53.415Z,18.20
2023-04-29T13:31:20.188Z,18.20
2023-04-29T13:33:48.410Z,18.10
2023-04-29T13:36:15.647Z,18.00
2023-04-29T13:38:42.292Z,17.90
2023-04-29T13:41:11.601Z,17.80
2023-04-29T13:43:43.606Z,17.50
2023-04-29T13:46:11.458Z,17.60
2023-04-29T13:54:25.765Z,17.70
2023-04-29T13:57:12.391Z,17.90
2023-04-29T13:59:40.072Z,18.20
2023-04-29T14:04:31.569Z,18.10
2023-04-29T14:06:58.435Z,18.00
2023-04-29T14:09:26.232Z,17.60
2023-04-29T14:11:53.054Z,17.40
2023-04-29T14:14:19.754Z,17.00
2023-04-29T14:16:46.388Z,16.90
2023-04-29T14:19:13.132Z,16.50
2023-04-29T14:21:40.079Z,16.30
2023-04-29T14:24:06.811Z,16.20
2023-04-29T14:26:33.536Z,16.10
2023-04-29T14:29:00.516Z,16.00
2023-04-29T14:31:29.388Z,16.00
2023-04-29T14:33:57.729Z,16.00
2023-04-29T14:36:24.957Z,16.00
2023-04-29T14:38:51.700Z,16.00
2023-04-29T14:41:18.437Z,16.10
2023-04-29T14:43:45.260Z,16.10
2023-04-29T14:46:12.002Z,16.10
2023-04-29T14:48:38.749Z,16.20
2023-04-29T14:51:06.173Z,16.20
2023-04-29T14:53:32.899Z,16.20
2023-04-29T14:55:59.804Z,16.30
2023-04-29T14:58:26.727Z,16.30
2023-04-29T15:00:53.401Z,16.20
2023-04-29T15:03:22.845Z,16.20
2023-04-29T15:05:51.324Z,16.20
2023-04-29T15:08:18.931Z,16.20
2023-04-29T15:10:47.902Z,16.20
2023-04-29T15:13:14.857Z,16.20
2023-04-29T15:15:45.833Z,16.30
2023-04-29T15:18:12.531Z,16.30
2023-04-29T15:20:39.375Z,16.30
2023-04-29T15:23:06.642Z,16.40
2023-04-29T15:25:34.420Z,16.50
2023-04-29T15:28:01.798Z,16.70
2023-04-29T15:30:28.796Z,16.70
2023-04-29T15:32:55.744Z,16.80
2023-04-29T15:35:22.534Z,16.90
2023-04-29T15:37:49.459Z,16.80
2023-04-29T15:40:17.418Z,20.40
2023-04-29T15:42:44.380Z,16.50
2023-04-29T15:45:11.644Z,16.30
2023-04-29T15:47:38.434Z,16.10
2023-04-29T15:50:05.896Z,16.10
2023-04-29T15:52:32.541Z,15.90
2023-04-29T15:54:59.307Z,15.70
2023-04-29T15:57:26.072Z,15.50
2023-04-29T15:59:53.209Z,15.40
2023-04-29T16:02:21.281Z,15.30
2023-04-29T16:04:48.251Z,15.10
2023-04-29T16:07:15.004Z,15.00
2023-04-29T16:09:42.436Z,14.90
2023-04-29T16:12:11.552Z,15.00
2023-04-29T16:14:38.331Z,15.00
2023-04-29T16:17:05.642Z,15.10
2023-04-29T16:19:35.175Z,15.20
2023-04-29T16:22:03.333Z,15.20
2023-04-29T16:24:29.999Z,15.20
2023-04-29T16:26:57.244Z,17.60
2023-04-29T16:29:23.939Z,15.20
2023-04-29T16:31:50.941Z,15.10
2023-04-29T16:34:18.061Z,15.20
2023-04-29T16:36:44.685Z,15.10
2023-04-29T16:39:11.505Z,15.00
2023-04-29T16:41:38.307Z,14.90
2023-04-29T16:44:05.252Z,14.80
2023-04-29T16:46:32.583Z,14.80
2023-04-29T16:48:59.484Z,14.80
2023-04-29T16:51:26.403Z,14.70
2023-04-29T16:53:53.434Z,14.30
2023-04-29T16:56:21.680Z,14.60
2023-04-29T16:58:48.602Z,15.20
2023-04-29T17:01:16.057Z,12.60
2023-04-29T17:03:42.916Z,14.40
2023-04-29T17:06:09.695Z,14.40
2023-04-29T17:08:36.640Z,14.40
2023-04-29T17:11:05.178Z,14.40
2023-04-29T17:13:31.938Z,14.30
2023-04-29T17:15:58.731Z,14.30
2023-04-29T17:18:25.846Z,14.10
2023-04-29T17:20:52.628Z,14.10
2023-04-29T17:23:19.325Z,14.00
2023-04-29T17:25:46.410Z,13.90
2023-04-29T17:28:13.107Z,13.90
2023-04-29T17:30:39.751Z,13.80
2023-04-29T17:33:06.566Z,13.80
2023-04-29T17:35:33.994Z,13.70
2023-04-29T17:38:00.577Z,13.70
2023-04-29T17:40:27.493Z,13.80
2023-04-29T17:42:54.490Z,13.70
2023-04-29T17:45:21.246Z,13.60
2023-04-29T17:47:48.376Z,13.10
2023-04-29T17:50:15.381Z,13.40
2023-04-29T17:52:42.610Z,13.40
2023-04-29T17:55:10.166Z,13.30
2023-04-29T17:57:38.165Z,13.10
2023-04-29T18:00:07.475Z,13.20
2023-04-29T18:02:34.811Z,13.20
2023-04-29T18:05:03.396Z,13.10
2023-04-29T18:07:30.424Z,13.00
2023-04-29T18:09:57.731Z,13.10
2023-04-29T18:12:25.132Z,13.00
2023-04-29T18:14:52.390Z,12.90
2023-04-29T18:17:19.747Z,12.90
2023-04-29T18:19:48.593Z,12.80
2023-04-29T18:22:15.927Z,12.80
2023-04-29T18:24:42.656Z,10.20
2023-04-29T18:27:09.313Z,12.90
2023-04-29T18:29:36.180Z,12.70
2023-04-29T18:32:03.909Z,12.60
2023-04-29T18:34:31.927Z,12.60
2023-04-29T18:36:58.650Z,12.40
2023-04-29T18:39:25.541Z,12.50
2023-04-29T18:41:52.292Z,12.50
2023-04-29T18:44:19.021Z,12.50
2023-04-29T18:46:45.776Z,12.40
2023-04-29T18:49:16.115Z,12.40
2023-04-29T18:51:46.780Z,12.60
2023-04-29T18:54:16.507Z,12.40
2023-04-29T18:56:47.186Z,11.90
2023-04-29T18:59:19.037Z,12.30
2023-04-29T19:01:46.791Z,12.30
2023-04-29T19:04:13.810Z,12.30
2023-04-29T19:06:40.789Z,12.30
2023-04-29T19:09:07.628Z,12.20
2023-04-29T19:11:34.483Z,12.20
2023-04-29T19:14:01.290Z,12.20
2023-04-29T19:16:28.006Z,12.20
2023-04-29T19:18:54.710Z,12.20
2023-04-29T19:21:21.981Z,12.20
2023-04-29T19:23:48.646Z,12.10
2023-04-29T19:26:15.838Z,12.10
2023-04-29T19:28:42.622Z,12.10
2023-04-29T19:31:10.723Z,12.10
2023-04-29T19:33:37.505Z,12.10
2023-04-29T19:36:04.111Z,12.00
2023-04-29T19:38:30.869Z,12.00
2023-04-29T19:40:57.801Z,11.80
2023-04-29T19:43:24.579Z,12.00
2023-04-29T19:45:51.223Z,12.00
2023-04-29T19:48:17.902Z,11.90
2023-04-29T19:50:44.599Z,11.90
2023-04-29T19:53:11.673Z,11.90
2023-04-29T19:55:39.907Z,11.90
2023-04-29T19:58:07.564Z,11.90
2023-04-29T20:00:34.540Z,11.80
2023-04-29T20:03:01.442Z,11.80
2023-04-29T20:05:28.876Z,11.80
2023-04-29T20:07:55.849Z,11.80
2023-04-29T20:10:22.843Z,11.60
2023-04-29T20:12:49.636Z,11.70
2023-04-29T20:15:16.648Z,11.70
2023-04-29T20:17:43.690Z,11.60
2023-04-29T20:20:10.616Z,11.60
2023-04-29T20:22:37.418Z,11.60
2023-04-29T20:25:05.106Z,11.50
2023-04-29T20:27:32.013Z,11.50
2023-04-29T20:29:58.718Z,11.60
2023-04-29T20:32:26.224Z,11.50
2023-04-29T20:34:53.992Z,11.50
2023-04-29T20:37:20.726Z,11.50
2023-04-29T20:39:47.873Z,11.50
2023-04-29T20:44:43.560Z,11.50
2023-04-29T20:47:10.246Z,11.50
2023-04-29T20:49:37.707Z,11.50
2023-04-29T20:52:06.360Z,11.50
2023-04-29T20:54:34.067Z,11.50
2023-04-29T20:57:04.615Z,11.40
2023-04-29T20:59:32.931Z,11.40
2023-04-29T21:01:59.988Z,14.30
2023-04-29T21:04:26.860Z,11.40
2023-04-29T21:06:53.663Z,11.40
2023-04-29T21:09:21.371Z,11.40
2023-04-29T21:11:48.491Z,11.40
2023-04-29T21:14:15.213Z,11.40
2023-04-29T21:16:42.511Z,11.20
2023-04-29T21:19:09.306Z,11.40
2023-04-29T21:21:36.033Z,11.40
2023-04-29T21:24:03.017Z,11.40
2023-04-29T21:26:29.673Z,10.70
2023-04-29T21:28:56.502Z,11.40
2023-04-29T21:31:23.225Z,11.40
2023-04-29T21:33:49.969Z,11.30
2023-04-29T21:36:16.722Z,11.30
2023-04-29T21:38:43.482Z,11.30
2023-04-29T21:41:20.763Z,11.30
2023-04-29T21:43:48.800Z,11.30
2023-04-29T21:46:16.781Z,11.30
2023-04-29T21:48:43.849Z,11.30
2023-04-29T21:51:10.648Z,11.20
2023-04-29T21:53:38.130Z,11.30
2023-04-29T21:56:06.574Z,11.20
2023-04-29T21:58:33.681Z,11.20
2023-04-29T22:01:03.341Z,11.20
2023-04-29T22:03:30.488Z,11.20
2023-04-29T22:05:57.822Z,11.20
2023-04-29T22:08:24.653Z,11.10
2023-04-29T22:10:51.390Z,11.20
2023-04-29T22:13:18.107Z,11.20
2023-04-29T22:15:44.842Z,11.20
2023-04-29T22:18:11.476Z,11.20
2023-04-29T22:20:38.376Z,11.10
2023-04-29T22:23:05.046Z,11.10
2023-04-29T22:25:31.964Z,11.10
2023-04-29T22:27:58.734Z,11.10
2023-04-29T22:30:25.472Z,11.10
2023-04-29T22:32:52.178Z,11.10
2023-04-29T22:35:18.918Z,11.10
2023-04-29T22:37:45.672Z,11.00
2023-04-29T22:40:13.210Z,11.10
2023-04-29T22:42:41.745Z,11.00
2023-04-29T22:45:10.056Z,11.00
2023-04-29T22:47:36.780Z,11.00
2023-04-29T22:50:03.702Z,11.00
2023-04-29T22:52:32.686Z,11.00
2023-04-29T22:54:59.820Z,11.00
2023-04-29T22:57:26.526Z,11.00
2023-04-29T22:59:55.165Z,11.00
2023-04-29T23:02:27.505Z,11.00
2023-04-29T23:04:55.826Z,11.00
2023-04-29T23:07:23.314Z,11.00
2023-04-29T23:09:50.934Z,10.90
2023-04-29T23:12:18.790Z,10.90
2023-04-29T23:14:46.021Z,10.90
2023-04-29T23:17:12.750Z,7.60
2023-04-29T23:19:39.398Z,10.90
2023-04-29T23:22:07.341Z,10.90
2023-04-29T23:24:35.350Z,10.90
2023-04-29T23:27:03.368Z,10.90
2023-04-29T23:29:34.110Z,10.80
2023-04-29T23:32:01.355Z,10.70
2023-04-29T23:34:28.084Z,10.80
2023-04-29T23:36:54.738Z,10.80
2023-04-29T23:39:21.433Z,10.70
2023-04-29T23:41:48.132Z,10.80
2023-04-29T23:44:14.838Z,10.50
2023-04-29T23:46:41.627Z,10.80
2023-04-29T23:49:08.872Z,10.80
2023-04-29T23:51:35.564Z,10.80
2023-04-29T23:54:02.173Z,10.80
2023-04-29T23:56:29.122Z,10.80
2023-04-29T23:58:55.763Z,10.70
